Flight Track Log - Related Links

Times and Time Zones

All times are in EDT time to prevent confusion due to time zone crossing. See the FLG3976 flight status page for this flight to view local times or setup timezone preferences in your user account.

Time Position Orientation Groundspeed Altitude Reporting Facility
EDT Latitude Longitude Course Direction KTS MPH feet Rate Location/Type
Sat 06:38:51 AM 46.3689 -87.3925 142° Southeast 15 17 1,200  Level Minneapolis Center
Sat 06:39:51 AM 46.3303 -87.3994 187° South 146 168 2,600 1,650 Climbing Minneapolis Center
Sat 06:40:51 AM 46.2850 -87.3569 147° Southeast 208 239 4,500 1,736 Climbing Minneapolis Center
Sat 06:41:52 AM 46.2336 -87.2975 141° Southeast 237 273 6,100 2,033 Climbing Minneapolis Center
Sat 06:42:52 AM 46.1711 -87.2244 141° Southeast 280 322 8,600 2,400 Climbing Minneapolis Center
Sat 06:43:52 AM 46.1119 -87.1561 141° Southeast 289 333 10,900 1,636 Climbing Minneapolis Center
Sat 06:44:00 AM 45.9570 -86.9760 142° Southeast  Level Estimated
Sat 06:44:53 AM 46.0392 -87.0719 141° Southeast 335 386 11,900  Level Minneapolis Center
Sat 06:45:00 AM 45.8775 -86.8928 142° Southeast  Level Estimated
Sat 06:45:53 AM 45.9617 -86.9833 142° Southeast 349 402 13,600  Level Minneapolis Center
Sat 06:46:53 AM 45.8817 -86.8928 142° Southeast 361 415 15,200 1,388 Climbing Minneapolis Center
Sat 06:47:54 AM 45.8003 -86.7986 141° Southeast 371 427 16,400 1,190 Climbing Minneapolis Center
Sat 06:48:54 AM 45.7250 -86.7156 142° Southeast 379 436 17,600 1,333 Climbing Minneapolis Center
Sat 06:50:18 AM 45.6247 -86.6017 142° Southeast 385 443 19,600 1,490 Climbing Minneapolis Center
Sat 06:51:19 AM 45.5214 -86.4875 142° Southeast 391 450 21,200 1,190 Climbing Minneapolis Center
Sat 06:52:19 AM 45.4317 -86.3892 142° Southeast 402 463 22,000 850 Climbing Minneapolis Center
Sat 06:53:19 AM 45.3400 -86.2861 142° Southeast 414 476 22,900 893 Climbing Minneapolis Center
Sat 06:54:20 AM 45.2472 -86.1833 142° Southeast 420 483 23,800 942 Climbing Minneapolis Center
Sat 06:55:20 AM 45.1464 -86.0714 142° Southeast 427 491 24,800 942 Climbing Minneapolis Center
Sat 06:56:21 AM 45.0506 -85.9647 142° Southeast 435 501 25,700 893 Climbing Minneapolis Center
Sat 06:57:21 AM 44.9583 -85.8644 142° Southeast 428 493 26,600 650 Climbing Minneapolis Center
Sat 06:58:21 AM 44.8639 -85.7631 143° Southeast 425 489 27,000 198 Climbing Minneapolis Center
Sat 06:59:22 AM 44.7664 -85.6581 143° Southeast 434 499 27,000  Level Minneapolis Center
Sat 07:00:22 AM 44.6694 -85.5522 142° Southeast 443 510 27,000  Level Minneapolis Center
Sat 07:01:22 AM 44.5744 -85.4258 137° Southeast 464 534 27,000  Level Minneapolis Center
Sat 07:02:23 AM 44.4778 -85.2994 137° Southeast 472 543 27,000 -99 Level Minneapolis Center
Sat 07:03:23 AM 44.3828 -85.1728 136° Southeast 472 543 26,800 -500 Descending Minneapolis Center
Sat 07:04:23 AM 44.2861 -85.0472 137° Southeast 473 544 26,000 -744 Descending Minneapolis Center
Sat 07:05:24 AM 44.1906 -84.9217 137° Southeast 473 544 25,300 -645 Descending Minneapolis Center
Sat 07:06:24 AM 44.0939 -84.7972 137° Southeast 473 544 24,700 -650 Descending Minneapolis Center
Sat 07:07:24 AM 43.9953 -84.6700 137° Southeast 475 547 24,000 -694 Descending Minneapolis Center
Sat 07:08:25 AM 43.9000 -84.5458 137° Southeast 471 542 23,300 -496 Descending Minneapolis Center
Sat 07:09:25 AM 43.8050 -84.4256 138° Southeast 466 536 23,000 -149 Descending Minneapolis Center
Sat 07:10:26 AM 43.7128 -84.3072 137° Southeast 456 525 23,000  Level Minneapolis Center
Sat 07:11:22 AM 43.6150 -84.1847 138° Southeast 458 527 23,000 -621 Level Cleveland Center
Sat 07:12:22 AM 43.5092 -84.1011 150° Southeast 436 502 21,800 -1,450 Descending Cleveland Center
Sat 07:13:22 AM 43.3944 -84.0344 157° South 441 507 20,100 -1,650 Descending Cleveland Center
Sat 07:14:22 AM 43.2936 -83.9861 161° South 441 507 18,500 -1,650 Descending Cleveland Center
Sat 07:15:22 AM 43.1869 -83.9289 159° South 428 493 16,800 -1,700 Descending Cleveland Center
Sat 07:16:22 AM 43.0844 -83.8694 157° South 418 481 15,100 -1,750 Descending Cleveland Center
Sat 07:16:58 AM 43.0125 -83.8317 159° South 396 456 14,000 -1,778 Descending Cleveland Center
Sat 07:17:16 AM 42.9817 -83.8158 159° South 393 452 13,500 -1,519 Descending Cleveland Center
Sat 07:18:17 AM 42.8811 -83.7625 159° South 384 442 12,000 -762 Descending Cleveland Center
Sat 07:19:22 AM 42.7867 -83.7094 158° South 387 445 11,900 -384 Descending Cleveland Center
Sat 07:20:22 AM 42.7006 -83.6572 156° South 364 419 11,200 -950 Descending Cleveland Center
Sat 07:21:22 AM 42.6381 -83.5778 137° Southeast 311 358 10,000 -1,250 Descending Cleveland Center
Sat 07:22:22 AM 42.5797 -83.4878 131° Southeast 304 350 8,700 -1,109 Descending Cleveland Center
Sat 07:23:21 AM 42.5486 -83.4017 116° Southeast 236 272 7,800 -958 Descending Cleveland Center
Sat 07:24:21 AM 42.5150 -83.3297 122° Southeast 222 255 6,800 -1,091 Descending Cleveland Center
Sat 07:25:22 AM 42.4706 -83.2714 136° Southeast 213 245 5,600 -1,190 Descending Cleveland Center
Sat 07:26:22 AM 42.4189 -83.2494 163° South 206 237 4,400 -836 Descending Cleveland Center
Sat 07:27:24 AM 42.3622 -83.2642 191° South 185 213 3,900 -787 Descending Cleveland Center
Sat 07:28:24 AM 42.3197 -83.2986 211° Southwest 180 207 2,800 -992 Descending Cleveland Center
Sat 07:29:25 AM 42.2792 -83.3336 213° Southwest 144 166 1,900 -844 Descending Cleveland Center
Sat 07:30:32 AM 42.2369 -83.3597 205° Southwest 145 167 1,000 -806 Descending Cleveland Center

Login

Don't have an account? Register now (free) for customized features, flight alerts, and more!